Time,TemperatureF,DewpointF,PressureIn,WindDirection,WindDirectionDegrees,WindSpeedMPH,WindSpeedGustMPH,Humidity,HourlyPrecipIn,Conditions,Clouds,dailyrainin,SoftwareType,DateUTC
2013-06-30 00:04:00,69.3,61.0,29.92,NW,325,3.0,4.0,75,0.00,,,0.00,Wunderground v.1.15,2013-06-30 07:04:00,
2013-06-30 00:10:00,69.2,60.9,29.92,NW,326,2.0,4.0,75,0.00,,,0.00,Wunderground v.1.15,2013-06-30 07:10:00,
2013-06-30 00:16:00,69.2,60.9,29.92,NW,319,3.0,5.0,75,0.00,,,0.00,Wunderground v.1.15,2013-06-30 07:16:00,
2013-06-30 00:22:00,69.0,60.7,29.92,NW,323,3.0,3.0,75,0.00,,,0.00,Wunderground v.1.15,2013-06-30 07:22:00,
2013-06-30 00:27:00,68.9,61.0,29.92,WNW,296,3.0,7.0,76,0.00,,,0.00,Wunderground v.1.15,2013-06-30 07:27:00,
2013-06-30 00:34:00,69.0,60.7,29.92,NW,317,4.0,5.0,75,0.00,,,0.00,Wunderground v.1.15,2013-06-30 07:34:00,
2013-06-30 00:40:00,68.9,61.0,29.92,NW,318,3.0,3.0,76,0.00,,,0.00,Wunderground v.1.15,2013-06-30 07:40:00,
2013-06-30 00:46:00,68.7,60.8,29.92,NW,317,2.0,3.0,76,0.00,,,0.00,Wunderground v.1.15,2013-06-30 07:46:00,
2013-06-30 00:52:00,68.6,60.7,29.92,NW,315,2.0,2.0,76,0.00,,,0.00,Wunderground v.1.15,2013-06-30 07:52:00,
2013-06-30 00:58:00,68.4,60.9,29.92,NW,309,2.0,2.0,77,0.00,,,0.00,Wunderground v.1.15,2013-06-30 07:58:00,
2013-06-30 01:04:00,68.4,60.9,29.92,NW,319,2.0,3.0,77,0.00,,,0.00,Wunderground v.1.15,2013-06-30 08:04:00,
2013-06-30 01:10:00,68.3,60.8,29.92,NW,319,2.0,2.0,77,0.00,,,0.00,Wunderground v.1.15,2013-06-30 08:10:00,
2013-06-30 01:15:00,68.1,60.6,29.92,NW,322,2.0,3.0,77,0.00,,,0.00,Wunderground v.1.15,2013-06-30 08:15:00,
2013-06-30 01:22:00,68.0,60.9,29.92,NNW,342,2.0,2.0,78,0.00,,,0.00,Wunderground v.1.15,2013-06-30 08:22:00,
2013-06-30 01:27:00,68.2,60.7,29.91,NNW,329,2.0,2.0,77,0.00,,,0.00,Wunderground v.1.15,2013-06-30 08:27:00,
2013-06-30 01:34:00,68.2,60.7,29.91,WNW,302,2.0,5.0,77,0.00,,,0.00,Wunderground v.1.15,2013-06-30 08:34:00,
2013-06-30 01:40:00,68.2,60.7,29.91,NW,322,3.0,3.0,77,0.00,,,0.00,Wunderground v.1.15,2013-06-30 08:40:00,
2013-06-30 01:46:00,68.2,60.7,29.91,NW,316,3.0,4.0,77,0.00,,,0.00,Wunderground v.1.15,2013-06-30 08:46:00,
2013-06-30 01:51:00,68.2,60.7,29.91,NW,317,2.0,3.0,77,0.00,,,0.00,Wunderground v.1.15,2013-06-30 08:51:00,
2013-06-30 01:58:00,68.0,60.5,29.91,NW,325,2.0,3.0,77,0.00,,,0.00,Wunderground v.1.15,2013-06-30 08:58:00,
2013-06-30 02:03:00,68.0,60.5,29.91,NNW,329,3.0,3.0,77,0.00,,,0.00,Wunderground v.1.15,2013-06-30 09:03:00,
2013-06-30 02:10:00,67.8,60.7,29.90,WNW,296,2.0,2.0,78,0.00,,,0.00,Wunderground v.1.15,2013-06-30 09:10:00,
2013-06-30 02:15:00,67.6,60.5,29.90,NNW,347,2.0,2.0,78,0.00,,,0.00,Wunderground v.1.15,2013-06-30 09:15:00,
2013-06-30 02:22:00,67.3,60.6,29.90,NNW,346,1.0,2.0,79,0.00,,,0.00,Wunderground v.1.15,2013-06-30 09:22:00,
2013-06-30 02:28:00,67.0,60.3,29.90,NNW,348,1.0,2.0,79,0.00,,,0.00,Wunderground v.1.15,2013-06-30 09:28:00,
2013-06-30 02:34:00,66.8,60.4,29.90,NNW,348,1.0,1.0,80,0.00,,,0.00,Wunderground v.1.15,2013-06-30 09:34:00,
2013-06-30 02:40:00,66.6,60.2,29.90,NNW,348,1.0,1.0,80,0.00,,,0.00,Wunderground v.1.15,2013-06-30 09:40:00,
2013-06-30 02:46:00,66.4,60.4,29.91,North,349,1.0,1.0,81,0.00,,,0.00,Wunderground v.1.15,2013-06-30 09:46:00,
2013-06-30 02:52:00,66.5,60.5,29.90,North,349,1.0,2.0,81,0.00,,,0.00,Wunderground v.1.15,2013-06-30 09:52:00,
2013-06-30 02:57:00,66.5,60.5,29.90,NW,304,1.0,2.0,81,0.00,,,0.00,Wunderground v.1.15,2013-06-30 09:57:00,
2013-06-30 03:04:00,66.5,60.5,29.90,WNW,302,1.0,1.0,81,0.00,,,0.00,Wunderground v.1.15,2013-06-30 10:04:00,
2013-06-30 03:10:00,66.6,60.2,29.90,NNW,335,1.0,2.0,80,0.00,,,0.00,Wunderground v.1.15,2013-06-30 10:10:00,
2013-06-30 03:16:00,66.5,60.5,29.90,NNE,26,1.0,2.0,81,0.00,,,0.00,Wunderground v.1.15,2013-06-30 10:16:00,
2013-06-30 03:21:00,66.6,60.6,29.90,NNE,24,1.0,2.0,81,0.00,,,0.00,Wunderground v.1.15,2013-06-30 10:21:00,
2013-06-30 03:28:00,66.5,60.5,29.90,NNE,25,1.0,2.0,81,0.00,,,0.00,Wunderground v.1.15,2013-06-30 10:28:00,
2013-06-30 03:34:00,66.2,60.2,29.90,NNE,25,0.0,1.0,81,0.00,,,0.00,Wunderground v.1.15,2013-06-30 10:34:00,
2013-06-30 03:40:00,65.7,60.1,29.90,NNE,25,0.0,0.0,82,0.00,,,0.00,Wunderground v.1.15,2013-06-30 10:40:00,
2013-06-30 03:45:00,65.4,60.1,29.90,NE,37,1.0,2.0,83,0.00,,,0.00,Wunderground v.1.15,2013-06-30 10:45:00,
2013-06-30 03:52:00,64.9,59.9,29.90,NE,38,1.0,2.0,84,0.00,,,0.00,Wunderground v.1.15,2013-06-30 10:52:00,
2013-06-30 03:58:00,64.5,59.9,29.90,NE,38,1.0,2.0,85,0.00,,,0.00,Wunderground v.1.15,2013-06-30 10:58:00,
2013-06-30 04:04:00,64.2,59.6,29.90,NE,38,0.0,1.0,85,0.00,,,0.00,Wunderground v.1.15,2013-06-30 11:04:00,
2013-06-30 04:10:00,63.8,59.2,29.90,NE,38,0.0,0.0,85,0.00,,,0.00,Wunderground v.1.15,2013-06-30 11:10:00,
2013-06-30 04:16:00,63.6,59.3,29.90,NE,38,0.0,0.0,86,0.00,,,0.00,Wunderground v.1.15,2013-06-30 11:16:00,
2013-06-30 04:22:00,63.6,59.3,29.90,NE,38,0.0,0.0,86,0.00,,,0.00,Wunderground v.1.15,2013-06-30 11:22:00,
2013-06-30 04:28:00,63.6,59.3,29.90,NE,37,0.0,0.0,86,0.00,,,0.00,Wunderground v.1.15,2013-06-30 11:28:00,
2013-06-30 04:34:00,63.8,59.5,29.89,NE,38,0.0,1.0,86,0.00,,,0.00,Wunderground v.1.15,2013-06-30 11:34:00,
2013-06-30 04:40:00,63.8,59.2,29.89,NE,37,1.0,1.0,85,0.00,,,0.00,Wunderground v.1.15,2013-06-30 11:40:00,
2013-06-30 04:46:00,63.7,59.1,29.90,NE,38,1.0,2.0,85,0.00,,,0.00,Wunderground v.1.15,2013-06-30 11:46:00,
2013-06-30 04:52:00,63.3,59.0,29.89,NE,37,1.0,1.0,86,0.00,,,0.00,Wunderground v.1.15,2013-06-30 11:52:00,
2013-06-30 04:58:00,63.1,59.2,29.90,NE,38,1.0,2.0,87,0.00,,,0.00,Wunderground v.1.15,2013-06-30 11:58:00,
2013-06-30 05:04:00,62.9,59.0,29.90,NE,38,0.0,1.0,87,0.00,,,0.00,Wunderground v.1.15,2013-06-30 12:04:00,
2013-06-30 05:10:00,62.6,58.7,29.90,NE,37,0.0,2.0,87,0.00,,,0.00,Wunderground v.1.15,2013-06-30 12:10:00,
2013-06-30 05:16:00,62.6,58.7,29.90,NE,38,0.0,2.0,87,0.00,,,0.00,Wunderground v.1.15,2013-06-30 12:16:00,
2013-06-30 05:22:00,62.6,58.7,29.90,NE,38,0.0,0.0,87,0.00,,,0.00,Wunderground v.1.15,2013-06-30 12:22:00,
2013-06-30 05:28:00,62.6,59.0,29.90,NE,37,0.0,0.0,88,0.00,,,0.00,Wunderground v.1.15,2013-06-30 12:28:00,
2013-06-30 05:34:00,62.6,59.0,29.90,NE,38,0.0,0.0,88,0.00,,,0.00,Wunderground v.1.15,2013-06-30 12:34:00,
2013-06-30 05:40:00,62.5,58.9,29.90,NE,37,0.0,0.0,88,0.00,,,0.00,Wunderground v.1.15,2013-06-30 12:40:00,
2013-06-30 05:45:00,62.3,58.7,29.90,NE,37,0.0,0.0,88,0.00,,,0.00,Wunderground v.1.15,2013-06-30 12:45:00,
2013-06-30 05:52:00,62.2,58.6,29.90,NE,38,0.0,0.0,88,0.00,,,0.00,Wunderground v.1.15,2013-06-30 12:52:00,
2013-06-30 05:58:00,62.8,59.2,29.90,NE,38,0.0,2.0,88,0.00,,,0.00,Wunderground v.1.15,2013-06-30 12:58:00,
2013-06-30 06:04:00,62.9,59.0,29.90,NE,38,0.0,1.0,87,0.00,,,0.00,Wunderground v.1.15,2013-06-30 13:04:00,
2013-06-30 06:10:00,63.1,59.2,29.90,NE,38,0.0,0.0,87,0.00,,,0.00,Wunderground v.1.15,2013-06-30 13:10:00,
2013-06-30 06:15:00,63.4,59.5,29.90,NE,38,1.0,1.0,87,0.00,,,0.00,Wunderground v.1.15,2013-06-30 13:15:00,
2013-06-30 06:22:00,63.8,59.5,29.90,NE,38,1.0,1.0,86,0.00,,,0.00,Wunderground v.1.15,2013-06-30 13:22:00,
2013-06-30 06:28:00,63.8,59.5,29.90,NE,38,0.0,1.0,86,0.00,,,0.00,Wunderground v.1.15,2013-06-30 13:28:00,
2013-06-30 06:34:00,64.0,59.7,29.90,NE,37,0.0,0.0,86,0.00,,,0.00,Wunderground v.1.15,2013-06-30 13:34:00,
2013-06-30 06:40:00,64.7,60.4,29.90,NE,38,0.0,0.0,86,0.00,,,0.00,Wunderground v.1.15,2013-06-30 13:40:00,
2013-06-30 06:46:00,65.2,60.6,29.90,NE,38,0.0,0.0,85,0.00,,,0.00,Wunderground v.1.15,2013-06-30 13:46:00,
2013-06-30 06:52:00,66.3,61.0,29.90,NE,38,0.0,1.0,83,0.00,,,0.00,Wunderground v.1.15,2013-06-30 13:52:00,
2013-06-30 06:58:00,67.3,60.9,29.90,NE,38,0.0,1.0,80,0.00,,,0.00,Wunderground v.1.15,2013-06-30 13:58:00,
2013-06-30 07:04:00,67.8,61.0,29.90,NE,37,1.0,1.0,79,0.00,,,0.00,Wunderground v.1.15,2013-06-30 14:04:00,
2013-06-30 07:10:00,68.6,61.1,29.90,NE,38,1.0,1.0,77,0.00,,,0.00,Wunderground v.1.15,2013-06-30 14:10:00,
2013-06-30 07:16:00,69.3,61.4,29.90,NE,37,0.0,1.0,76,0.00,,,0.00,Wunderground v.1.15,2013-06-30 14:16:00,
2013-06-30 07:22:00,69.8,61.5,29.90,NE,38,1.0,2.0,75,0.00,,,0.00,Wunderground v.1.15,2013-06-30 14:22:00,
2013-06-30 07:28:00,70.2,61.5,29.90,NW,321,1.0,5.0,74,0.00,,,0.00,Wunderground v.1.15,2013-06-30 14:28:00,
2013-06-30 07:34:00,71.0,61.9,29.90,North,5,1.0,1.0,73,0.00,,,0.00,Wunderground v.1.15,2013-06-30 14:34:00,
2013-06-30 07:40:00,70.7,61.6,29.89,NW,319,2.0,3.0,73,0.00,,,0.00,Wunderground v.1.15,2013-06-30 14:40:00,
2013-06-30 07:46:00,70.7,61.6,29.89,NNW,338,3.0,4.0,73,0.00,,,0.00,Wunderground v.1.15,2013-06-30 14:46:00,
2013-06-30 07:52:00,70.8,62.1,29.89,WNW,302,3.0,4.0,74,0.00,,,0.00,Wunderground v.1.15,2013-06-30 14:52:00,
2013-06-30 07:58:00,71.1,61.6,29.89,North,360,3.0,6.0,72,0.00,,,0.00,Wunderground v.1.15,2013-06-30 14:58:00,
2013-06-30 08:04:00,72.0,62.1,29.89,NW,316,2.0,3.0,71,0.00,,,0.00,Wunderground v.1.15,2013-06-30 15:04:00,
2013-06-30 08:10:00,72.2,62.3,29.89,WNW,284,2.0,2.0,71,0.00,,,0.00,Wunderground v.1.15,2013-06-30 15:10:00,
2013-06-30 08:16:00,72.1,62.2,29.89,NE,34,2.0,2.0,71,0.00,,,0.00,Wunderground v.1.15,2013-06-30 15:16:00,
2013-06-30 08:22:00,72.9,62.5,29.89,WNW,296,1.0,2.0,70,0.00,,,0.00,Wunderground v.1.15,2013-06-30 15:22:00,
2013-06-30 08:28:00,74.3,63.5,29.89,NW,308,1.0,2.0,69,0.00,,,0.00,Wunderground v.1.15,2013-06-30 15:28:00,
2013-06-30 08:33:00,75.2,63.1,29.89,West,264,1.0,5.0,66,0.00,,,0.00,Wunderground v.1.15,2013-06-30 15:33:00,
2013-06-30 08:40:00,74.1,62.9,29.89,NW,308,2.0,2.0,68,0.00,,,0.00,Wunderground v.1.15,2013-06-30 15:40:00,
2013-06-30 08:45:00,74.1,63.3,29.89,NW,311,2.0,5.0,69,0.00,,,0.00,Wunderground v.1.15,2013-06-30 15:45:00,
2013-06-30 08:52:00,74.6,63.3,29.89,NW,315,2.0,3.0,68,0.00,,,0.00,Wunderground v.1.15,2013-06-30 15:52:00,
2013-06-30 08:58:00,73.9,62.7,29.89,West,269,3.0,5.0,68,0.00,,,0.00,Wunderground v.1.15,2013-06-30 15:58:00,
2013-06-30 09:04:00,74.3,63.5,29.89,WNW,298,3.0,4.0,69,0.00,,,0.00,Wunderground v.1.15,2013-06-30 16:04:00,
2013-06-30 09:10:00,74.1,62.9,29.89,West,268,3.0,6.0,68,0.00,,,0.00,Wunderground v.1.15,2013-06-30 16:10:00,
2013-06-30 09:16:00,74.2,63.0,29.88,WSW,254,3.0,6.0,68,0.00,,,0.00,Wunderground v.1.15,2013-06-30 16:16:00,
2013-06-30 09:22:00,75.3,64.0,29.88,WNW,301,2.0,3.0,68,0.00,,,0.00,Wunderground v.1.15,2013-06-30 16:22:00,
2013-06-30 09:28:00,76.3,63.7,29.88,West,273,2.0,3.0,65,0.00,,,0.00,Wunderground v.1.15,2013-06-30 16:28:00,
2013-06-30 09:34:00,76.7,64.0,29.88,North,355,2.0,6.0,65,0.00,,,0.00,Wunderground v.1.15,2013-06-30 16:34:00,
2013-06-30 09:40:00,75.8,64.1,29.88,NW,307,3.0,3.0,67,0.00,,,0.00,Wunderground v.1.15,2013-06-30 16:40:00,
2013-06-30 09:45:00,76.1,63.9,29.87,West,261,4.0,5.0,66,0.00,,,0.00,Wunderground v.1.15,2013-06-30 16:45:00,
2013-06-30 09:52:00,77.5,64.8,29.87,NNE,26,3.0,4.0,65,0.00,,,0.00,Wunderground v.1.15,2013-06-30 16:52:00,
2013-06-30 09:58:00,79.2,65.1,29.87,NNE,25,2.0,4.0,62,0.00,,,0.00,Wunderground v.1.15,2013-06-30 16:58:00,
2013-06-30 10:04:00,79.5,64.9,29.87,NW,313,1.0,1.0,61,0.00,,,0.00,Wunderground v.1.15,2013-06-30 17:04:00,
2013-06-30 10:10:00,80.0,64.9,29.87,NW,313,2.0,2.0,60,0.00,,,0.00,Wunderground v.1.15,2013-06-30 17:10:00,
2013-06-30 10:16:00,79.4,64.8,29.87,NW,305,2.0,5.0,61,0.00,,,0.00,Wunderground v.1.15,2013-06-30 17:16:00,
2013-06-30 10:22:00,79.8,65.6,29.87,North,355,2.0,3.0,62,0.00,,,0.00,Wunderground v.1.15,2013-06-30 17:22:00,
2013-06-30 10:28:00,80.3,65.1,29.87,NNW,346,2.0,4.0,60,0.00,,,0.00,Wunderground v.1.15,2013-06-30 17:28:00,
2013-06-30 10:33:00,81.2,65.0,29.87,NE,42,2.0,3.0,58,0.00,,,0.00,Wunderground v.1.15,2013-06-30 17:33:00,
2013-06-30 10:40:00,81.6,65.4,29.86,NNW,335,2.0,2.0,58,0.00,,,0.00,Wunderground v.1.15,2013-06-30 17:40:00,
2013-06-30 10:45:00,82.0,65.8,29.86,North,11,2.0,2.0,58,0.00,,,0.00,Wunderground v.1.15,2013-06-30 17:45:00,
2013-06-30 10:52:00,82.2,65.4,29.86,WNW,284,2.0,4.0,57,0.00,,,0.00,Wunderground v.1.15,2013-06-30 17:52:00,
2013-06-30 10:58:00,81.2,65.5,29.86,West,280,3.0,4.0,59,0.00,,,0.00,Wunderground v.1.15,2013-06-30 17:58:00,
2013-06-30 11:04:00,83.7,66.3,29.86,NW,315,2.0,3.0,56,0.00,,,0.00,Wunderground v.1.15,2013-06-30 18:04:00,
2013-06-30 11:10:00,83.6,66.2,29.86,North,355,2.0,2.0,56,0.00,,,0.00,Wunderground v.1.15,2013-06-30 18:10:00,
2013-06-30 11:14:00,83.1,65.3,29.86,NE,37,2.0,2.0,55,0.00,,,0.00,Wunderground v.1.15,2013-06-30 18:14:00,
2013-06-30 11:20:00,83.8,65.4,29.85,NE,37,1.0,2.0,54,0.00,,,0.00,Wunderground v.1.15,2013-06-30 18:20:00,
2013-06-30 11:25:00,84.4,64.9,29.85,NE,49,1.0,2.0,52,0.00,,,0.00,Wunderground v.1.15,2013-06-30 18:25:00,
2013-06-30 11:32:00,85.4,66.9,29.85,ENE,60,1.0,2.0,54,0.00,,,0.00,Wunderground v.1.15,2013-06-30 18:32:00,
2013-06-30 11:38:00,84.9,68.5,29.85,ESE,104,1.0,3.0,58,0.00,,,0.00,Wunderground v.1.15,2013-06-30 18:38:00,
2013-06-30 11:44:00,85.6,67.6,29.85,SE,126,1.0,2.0,55,0.00,,,0.00,Wunderground v.1.15,2013-06-30 18:44:00,
2013-06-30 11:50:00,85.6,69.6,29.85,SSW,213,2.0,2.0,59,0.00,,,0.00,Wunderground v.1.15,2013-06-30 18:50:00,
2013-06-30 11:56:00,85.6,68.6,29.84,SSE,155,1.0,4.0,57,0.00,,,0.00,Wunderground v.1.15,2013-06-30 18:56:00,
2013-06-30 12:02:00,84.8,68.4,29.84,SSE,148,2.0,2.0,58,0.00,,,0.00,Wunderground v.1.15,2013-06-30 19:02:00,
2013-06-30 12:08:00,85.6,68.6,29.84,SSW,196,2.0,3.0,57,0.00,,,0.00,Wunderground v.1.15,2013-06-30 19:08:00,
2013-06-30 12:14:00,87.0,69.9,29.84,ESE,105,2.0,2.0,57,0.00,,,0.00,Wunderground v.1.15,2013-06-30 19:14:00,
2013-06-30 12:20:00,87.0,65.5,29.83,SSW,196,1.0,3.0,49,0.00,,,0.00,Wunderground v.1.15,2013-06-30 19:20:00,
2013-06-30 12:26:00,86.8,69.2,29.83,SSW,195,1.0,3.0,56,0.00,,,0.00,Wunderground v.1.15,2013-06-30 19:26:00,
2013-06-30 12:32:00,89.4,67.7,29.83,SSW,209,1.0,1.0,49,0.00,,,0.00,Wunderground v.1.15,2013-06-30 19:32:00,
2013-06-30 12:38:00,89.8,66.3,29.83,NW,325,1.0,3.0,46,0.00,,,0.00,Wunderground v.1.15,2013-06-30 19:38:00,
2013-06-30 12:44:00,89.2,65.1,29.83,NW,325,1.0,1.0,45,0.00,,,0.00,Wunderground v.1.15,2013-06-30 19:44:00,
2013-06-30 12:50:00,89.3,65.8,29.83,NE,34,2.0,2.0,46,0.00,,,0.00,Wunderground v.1.15,2013-06-30 19:50:00,
2013-06-30 12:56:00,89.2,66.3,29.82,NNE,23,2.0,4.0,47,0.00,,,0.00,Wunderground v.1.15,2013-06-30 19:56:00,
2013-06-30 13:02:00,89.9,66.3,29.82,NW,317,2.0,4.0,46,0.00,,,0.00,Wunderground v.1.15,2013-06-30 20:02:00,
2013-06-30 13:08:00,90.4,66.2,29.82,WSW,246,2.0,4.0,45,0.00,,,0.00,Wunderground v.1.15,2013-06-30 20:08:00,
2013-06-30 13:14:00,89.3,69.4,29.82,SE,134,2.0,5.0,52,0.00,,,0.00,Wunderground v.1.15,2013-06-30 20:14:00,
2013-06-30 13:20:00,90.1,70.1,29.82,ESE,119,2.0,2.0,52,0.00,,,0.00,Wunderground v.1.15,2013-06-30 20:20:00,
2013-06-30 13:26:00,90.7,70.1,29.81,South,171,1.0,2.0,51,0.00,,,0.00,Wunderground v.1.15,2013-06-30 20:26:00,
2013-06-30 13:32:00,91.2,69.4,29.81,SE,138,2.0,2.0,49,0.00,,,0.00,Wunderground v.1.15,2013-06-30 20:32:00,
2013-06-30 13:38:00,90.1,70.1,29.81,SE,130,2.0,3.0,52,0.00,,,0.00,Wunderground v.1.15,2013-06-30 20:38:00,
2013-06-30 13:44:00,90.7,70.1,29.81,SE,142,2.0,2.0,51,0.00,,,0.00,Wunderground v.1.15,2013-06-30 20:44:00,
2013-06-30 13:50:00,92.0,70.1,29.81,ESE,122,1.0,3.0,49,0.00,,,0.00,Wunderground v.1.15,2013-06-30 20:50:00,
2013-06-30 13:56:00,92.0,70.1,29.81,SE,138,2.0,3.0,49,0.00,,,0.00,Wunderground v.1.15,2013-06-30 20:56:00,
2013-06-30 14:02:00,91.0,69.8,29.80,SE,144,2.0,4.0,50,0.00,,,0.00,Wunderground v.1.15,2013-06-30 21:02:00,
2013-06-30 14:08:00,91.4,69.0,29.80,South,169,2.0,4.0,48,0.00,,,0.00,Wunderground v.1.15,2013-06-30 21:08:00,
2013-06-30 14:14:00,92.5,71.2,29.80,SSE,160,2.0,4.0,50,0.00,,,0.00,Wunderground v.1.15,2013-06-30 21:14:00,
2013-06-30 14:20:00,92.2,71.5,29.80,SSE,148,3.0,3.0,51,0.00,,,0.00,Wunderground v.1.15,2013-06-30 21:20:00,
2013-06-30 14:26:00,92.1,70.2,29.80,SSE,159,2.0,3.0,49,0.00,,,0.00,Wunderground v.1.15,2013-06-30 21:26:00,
2013-06-30 14:32:00,92.0,71.9,29.80,SE,126,2.0,3.0,52,0.00,,,0.00,Wunderground v.1.15,2013-06-30 21:32:00,
2013-06-30 14:38:00,92.4,70.5,29.80,SE,139,2.0,4.0,49,0.00,,,0.00,Wunderground v.1.15,2013-06-30 21:38:00,
2013-06-30 14:44:00,91.8,70.5,29.80,SE,146,2.0,3.0,50,0.00,,,0.00,Wunderground v.1.15,2013-06-30 21:44:00,
2013-06-30 14:50:00,93.4,71.4,29.80,SSE,152,2.0,3.0,49,0.00,,,0.00,Wunderground v.1.15,2013-06-30 21:50:00,
2013-06-30 14:56:00,93.1,70.5,29.79,SSW,194,2.0,3.0,48,0.00,,,0.00,Wunderground v.1.15,2013-06-30 21:56:00,
2013-06-30 15:02:00,93.4,71.4,29.79,SSE,164,2.0,3.0,49,0.00,,,0.00,Wunderground v.1.15,2013-06-30 22:02:00,
2013-06-30 15:08:00,93.5,70.2,29.79,SE,129,2.0,3.0,47,0.00,,,0.00,Wunderground v.1.15,2013-06-30 22:08:00,
2013-06-30 15:14:00,94.2,70.9,29.79,SSE,150,2.0,3.0,47,0.00,,,0.00,Wunderground v.1.15,2013-06-30 22:14:00,
2013-06-30 15:20:00,94.3,71.0,29.79,SE,138,2.0,5.0,47,0.00,,,0.00,Wunderground v.1.15,2013-06-30 22:20:00,
2013-06-30 15:26:00,94.0,71.3,29.78,SE,138,2.0,5.0,48,0.00,,,0.00,Wunderground v.1.15,2013-06-30 22:26:00,
2013-06-30 15:32:00,94.4,70.4,29.78,SE,140,1.0,2.0,46,0.00,,,0.00,Wunderground v.1.15,2013-06-30 22:32:00,
2013-06-30 15:38:00,95.5,71.4,29.78,South,169,1.0,4.0,46,0.00,,,0.00,Wunderground v.1.15,2013-06-30 22:38:00,
2013-06-30 15:44:00,94.8,70.8,29.78,SSW,203,2.0,4.0,46,0.00,,,0.00,Wunderground v.1.15,2013-06-30 22:44:00,
2013-06-30 15:50:00,94.9,70.2,29.78,ENE,76,1.0,1.0,45,0.00,,,0.00,Wunderground v.1.15,2013-06-30 22:50:00,
2013-06-30 15:56:00,93.8,69.2,29.78,North,355,2.0,6.0,45,0.00,,,0.00,Wunderground v.1.15,2013-06-30 22:56:00,
2013-06-30 16:02:00,93.2,70.0,29.78,NNW,338,3.0,3.0,47,0.00,,,0.00,Wunderground v.1.15,2013-06-30 23:02:00,
2013-06-30 16:08:00,93.4,70.2,29.78,NNW,327,2.0,3.0,47,0.00,,,0.00,Wunderground v.1.15,2013-06-30 23:08:00,
2013-06-30 16:14:00,94.0,70.7,29.78,North,360,2.0,2.0,47,0.00,,,0.00,Wunderground v.1.15,2013-06-30 23:14:00,
2013-06-30 16:20:00,93.3,69.4,29.78,NNE,12,2.0,4.0,46,0.00,,,0.00,Wunderground v.1.15,2013-06-30 23:20:00,
2013-06-30 16:26:00,93.3,69.4,29.78,North,5,2.0,4.0,46,0.00,,,0.00,Wunderground v.1.15,2013-06-30 23:26:00,
2013-06-30 16:32:00,93.1,69.9,29.78,NNW,338,2.0,3.0,47,0.00,,,0.00,Wunderground v.1.15,2013-06-30 23:32:00,
2013-06-30 16:38:00,93.3,69.4,29.78,North,360,2.0,3.0,46,0.00,,,0.00,Wunderground v.1.15,2013-06-30 23:38:00,
2013-06-30 16:44:00,93.1,68.6,29.77,WNW,291,2.0,4.0,45,0.00,,,0.00,Wunderground v.1.15,2013-06-30 23:44:00,
2013-06-30 16:50:00,92.8,68.3,29.77,WNW,292,3.0,5.0,45,0.00,,,0.00,Wunderground v.1.15,2013-06-30 23:50:00,
2013-06-30 16:54:00,92.6,68.8,29.77,NNE,23,3.0,5.0,46,0.00,,,0.00,Wunderground v.1.15,2013-06-30 23:54:00,
2013-06-30 17:00:00,93.1,69.3,29.77,NNE,14,3.0,3.0,46,0.00,,,0.00,Wunderground v.1.15,2013-07-01 00:00:00,
2013-06-30 17:06:00,92.8,68.3,29.77,NNE,22,2.0,4.0,45,0.00,,,0.00,Wunderground v.1.15,2013-07-01 00:06:00,
2013-06-30 17:12:00,92.5,69.3,29.77,NW,321,3.0,3.0,47,0.00,,,0.00,Wunderground v.1.15,2013-07-01 00:12:00,
2013-06-30 17:18:00,92.9,69.1,29.77,WNW,290,2.0,3.0,46,0.00,,,0.00,Wunderground v.1.15,2013-07-01 00:18:00,
2013-06-30 17:24:00,92.9,69.7,29.77,NE,42,3.0,4.0,47,0.00,,,0.00,Wunderground v.1.15,2013-07-01 00:24:00,
2013-06-30 17:30:00,92.4,68.0,29.77,NW,315,4.0,5.0,45,0.00,,,0.00,Wunderground v.1.15,2013-07-01 00:30:00,
2013-06-30 17:36:00,92.2,67.8,29.77,WNW,284,4.0,6.0,45,0.00,,,0.00,Wunderground v.1.15,2013-07-01 00:36:00,
2013-06-30 17:42:00,92.2,67.8,29.77,WNW,300,4.0,5.0,45,0.00,,,0.00,Wunderground v.1.15,2013-07-01 00:42:00,
2013-06-30 17:48:00,91.8,66.8,29.76,NNW,339,3.0,5.0,44,0.00,,,0.00,Wunderground v.1.15,2013-07-01 00:48:00,
2013-06-30 17:54:00,91.6,67.3,29.76,WSW,256,3.0,6.0,45,0.00,,,0.00,Wunderground v.1.15,2013-07-01 00:54:00,
2013-06-30 18:00:00,91.5,67.2,29.76,NNE,32,4.0,4.0,45,0.00,,,0.00,Wunderground v.1.15,2013-07-01 01:00:00,
2013-06-30 18:06:00,91.3,67.0,29.76,WNW,302,3.0,4.0,45,0.00,,,0.00,Wunderground v.1.15,2013-07-01 01:06:00,
2013-06-30 18:12:00,91.0,67.3,29.76,NNW,329,3.0,3.0,46,0.00,,,0.00,Wunderground v.1.15,2013-07-01 01:12:00,
2013-06-30 18:18:00,90.7,67.7,29.77,NW,319,3.0,6.0,47,0.00,,,0.00,Wunderground v.1.15,2013-07-01 01:18:00,
2013-06-30 18:24:00,90.4,67.4,29.77,WNW,297,4.0,8.0,47,0.00,,,0.00,Wunderground v.1.15,2013-07-01 01:24:00,
2013-06-30 18:30:00,90.2,67.9,29.77,WSW,240,3.0,4.0,48,0.00,,,0.00,Wunderground v.1.15,2013-07-01 01:30:00,
2013-06-30 18:36:00,90.2,67.2,29.76,NW,312,2.0,5.0,47,0.00,,,0.00,Wunderground v.1.15,2013-07-01 01:36:00,
2013-06-30 18:42:00,89.8,67.5,29.77,NE,41,3.0,3.0,48,0.00,,,0.00,Wunderground v.1.15,2013-07-01 01:42:00,
2013-06-30 18:48:00,89.5,67.8,29.77,NNW,331,3.0,4.0,49,0.00,,,0.00,Wunderground v.1.15,2013-07-01 01:48:00,
2013-06-30 18:54:00,89.5,67.2,29.77,NNW,344,2.0,7.0,48,0.00,,,0.00,Wunderground v.1.15,2013-07-01 01:54:00,
2013-06-30 19:00:00,89.0,66.8,29.77,NNE,27,2.0,4.0,48,0.00,,,0.00,Wunderground v.1.15,2013-07-01 02:00:00,
2013-06-30 19:06:00,88.9,66.7,29.77,NNW,340,2.0,4.0,48,0.00,,,0.00,Wunderground v.1.15,2013-07-01 02:06:00,
2013-06-30 19:12:00,88.6,67.0,29.77,NW,317,2.0,2.0,49,0.00,,,0.00,Wunderground v.1.15,2013-07-01 02:12:00,
2013-06-30 19:18:00,88.0,67.0,29.77,WNW,299,2.0,6.0,50,0.00,,,0.00,Wunderground v.1.15,2013-07-01 02:18:00,
2013-06-30 19:24:00,87.2,66.9,29.77,NNE,15,2.0,3.0,51,0.00,,,0.00,Wunderground v.1.15,2013-07-01 02:24:00,
2013-06-30 19:30:00,86.7,67.5,29.77,WNW,291,2.0,4.0,53,0.00,,,0.00,Wunderground v.1.15,2013-07-01 02:30:00,
2013-06-30 19:36:00,86.1,67.0,29.77,WNW,294,3.0,6.0,53,0.00,,,0.00,Wunderground v.1.15,2013-07-01 02:36:00,
2013-06-30 19:42:00,85.3,66.8,29.78,WNW,303,4.0,4.0,54,0.00,,,0.00,Wunderground v.1.15,2013-07-01 02:42:00,
2013-06-30 19:48:00,84.6,66.7,29.78,NW,309,3.0,6.0,55,0.00,,,0.00,Wunderground v.1.15,2013-07-01 02:48:00,
2013-06-30 19:54:00,83.8,66.4,29.78,WNW,287,3.0,10.0,56,0.00,,,0.00,Wunderground v.1.15,2013-07-01 02:54:00,
2013-06-30 20:00:00,83.0,66.2,29.78,NW,317,3.0,4.0,57,0.00,,,0.00,Wunderground v.1.15,2013-07-01 03:00:00,
2013-06-30 20:06:00,82.3,65.5,29.78,WNW,285,3.0,4.0,57,0.00,,,0.00,Wunderground v.1.15,2013-07-01 03:06:00,
2013-06-30 20:12:00,82.0,65.8,29.78,NNW,331,2.0,2.0,58,0.00,,,0.00,Wunderground v.1.15,2013-07-01 03:12:00,
2013-06-30 20:18:00,81.7,65.5,29.78,NW,317,1.0,3.0,58,0.00,,,0.00,Wunderground v.1.15,2013-07-01 03:18:00,
2013-06-30 20:24:00,81.2,65.5,29.78,WNW,300,2.0,6.0,59,0.00,,,0.00,Wunderground v.1.15,2013-07-01 03:24:00,
2013-06-30 20:30:00,80.9,65.7,29.78,NNW,327,2.0,3.0,60,0.00,,,0.00,Wunderground v.1.15,2013-07-01 03:30:00,
2013-06-30 20:36:00,80.6,65.4,29.78,WNW,290,2.0,5.0,60,0.00,,,0.00,Wunderground v.1.15,2013-07-01 03:36:00,
2013-06-30 20:42:00,80.3,65.6,29.78,WNW,289,3.0,3.0,61,0.00,,,0.00,Wunderground v.1.15,2013-07-01 03:42:00,
2013-06-30 20:48:00,80.1,65.4,29.79,NNW,338,3.0,3.0,61,0.00,,,0.00,Wunderground v.1.15,2013-07-01 03:48:00,
2013-06-30 20:54:00,80.0,65.3,29.79,North,351,2.0,7.0,61,0.00,,,0.00,Wunderground v.1.15,2013-07-01 03:54:00,
2013-06-30 21:00:00,79.7,65.5,29.79,NNW,335,1.0,1.0,62,0.00,,,0.00,Wunderground v.1.15,2013-07-01 04:00:00,
2013-06-30 21:02:00,79.6,65.4,29.79,NNW,334,1.0,1.0,62,0.00,,,0.00,Wunderground v.1.15,2013-07-01 04:02:00,
2013-06-30 21:04:00,79.5,65.3,29.79,WNW,293,1.0,1.0,62,0.00,,,0.00,Wunderground v.1.15,2013-07-01 04:04:00,
2013-06-30 21:10:00,79.3,65.1,29.79,WNW,303,1.0,1.0,62,0.00,,,0.00,Wunderground v.1.15,2013-07-01 04:10:00,
2013-06-30 21:12:00,79.2,65.1,29.80,North,355,1.0,1.0,62,0.00,,,0.00,Wunderground v.1.15,2013-07-01 04:12:00,
2013-06-30 21:14:00,79.1,65.0,29.80,NE,44,1.0,2.0,62,0.00,,,0.00,Wunderground v.1.15,2013-07-01 04:14:00,
2013-06-30 21:16:00,79.0,64.9,29.80,NW,319,1.0,3.0,62,0.00,,,0.00,Wunderground v.1.15,2013-07-01 04:16:00,
2013-06-30 21:22:00,78.7,64.6,29.80,North,5,2.0,3.0,62,0.00,,,0.00,Wunderground v.1.15,2013-07-01 04:22:00,
2013-06-30 21:28:00,78.6,64.5,29.80,NW,322,2.0,3.0,62,0.00,,,0.00,Wunderground v.1.15,2013-07-01 04:28:00,
2013-06-30 21:34:00,78.4,64.3,29.80,NNE,24,2.0,3.0,62,0.00,,,0.00,Wunderground v.1.15,2013-07-01 04:34:00,
2013-06-30 21:40:00,78.0,63.9,29.81,NW,314,2.0,2.0,62,0.00,,,0.00,Wunderground v.1.15,2013-07-01 04:40:00,
2013-06-30 21:46:00,77.7,63.6,29.81,NNW,330,2.0,4.0,62,0.00,,,0.00,Wunderground v.1.15,2013-07-01 04:46:00,
2013-06-30 21:52:00,77.4,63.8,29.81,NNW,330,2.0,2.0,63,0.00,,,0.00,Wunderground v.1.15,2013-07-01 04:52:00,
2013-06-30 21:58:00,77.1,63.5,29.82,NE,55,2.0,4.0,63,0.00,,,0.00,Wunderground v.1.15,2013-07-01 04:58:00,
2013-06-30 22:04:00,76.7,63.2,29.82,NE,44,2.0,4.0,63,0.00,,,0.00,Wunderground v.1.15,2013-07-01 05:04:00,
2013-06-30 22:10:00,76.4,63.3,29.82,NE,51,2.0,2.0,64,0.00,,,0.00,Wunderground v.1.15,2013-07-01 05:10:00,
2013-06-30 22:16:00,76.0,62.9,29.82,NNE,26,1.0,3.0,64,0.00,,,0.00,Wunderground v.1.15,2013-07-01 05:16:00,
2013-06-30 22:22:00,75.7,63.1,29.82,NNE,28,1.0,3.0,65,0.00,,,0.00,Wunderground v.1.15,2013-07-01 05:22:00,
2013-06-30 22:28:00,75.4,62.8,29.82,WNW,299,2.0,3.0,65,0.00,,,0.00,Wunderground v.1.15,2013-07-01 05:28:00,
2013-06-30 22:34:00,75.1,62.5,29.83,NW,322,2.0,6.0,65,0.00,,,0.00,Wunderground v.1.15,2013-07-01 05:34:00,
2013-06-30 22:40:00,74.8,62.7,29.83,NW,311,3.0,4.0,66,0.00,,,0.00,Wunderground v.1.15,2013-07-01 05:40:00,
2013-06-30 22:46:00,74.6,62.9,29.83,WNW,296,3.0,5.0,67,0.00,,,0.00,Wunderground v.1.15,2013-07-01 05:46:00,
2013-06-30 22:52:00,74.2,62.5,29.83,NNW,333,2.0,2.0,67,0.00,,,0.00,Wunderground v.1.15,2013-07-01 05:52:00,
2013-06-30 22:58:00,74.0,62.3,29.83,NNW,348,3.0,4.0,67,0.00,,,0.00,Wunderground v.1.15,2013-07-01 05:58:00,
2013-06-30 23:04:00,73.8,62.2,29.83,NW,322,3.0,6.0,67,0.00,,,0.00,Wunderground v.1.15,2013-07-01 06:04:00,
2013-06-30 23:10:00,73.6,62.4,29.83,NNW,342,3.0,3.0,68,0.00,,,0.00,Wunderground v.1.15,2013-07-01 06:10:00,
2013-06-30 23:16:00,73.3,62.1,29.83,NNW,332,3.0,6.0,68,0.00,,,0.00,Wunderground v.1.15,2013-07-01 06:16:00,
2013-06-30 23:22:00,73.1,62.3,29.84,NNW,341,2.0,3.0,69,0.00,,,0.00,Wunderground v.1.15,2013-07-01 06:22:00,
2013-06-30 23:28:00,72.9,62.1,29.84,NW,326,2.0,4.0,69,0.00,,,0.00,Wunderground v.1.15,2013-07-01 06:28:00,
2013-06-30 23:34:00,72.8,62.0,29.84,NW,319,3.0,4.0,69,0.00,,,0.00,Wunderground v.1.15,2013-07-01 06:34:00,
2013-06-30 23:40:00,72.6,61.8,29.84,NW,318,3.0,7.0,69,0.00,,,0.00,Wunderground v.1.15,2013-07-01 06:40:00,
2013-06-30 23:46:00,72.5,61.7,29.84,NNW,342,3.0,7.0,69,0.00,,,0.00,Wunderground v.1.15,2013-07-01 06:46:00,
2013-06-30 23:52:00,72.4,61.7,29.85,NNW,348,3.0,5.0,69,0.00,,,0.00,Wunderground v.1.15,2013-07-01 06:52:00,
2013-06-30 23:58:00,72.3,61.6,29.84,NW,325,5.0,11.0,69,0.00,,,0.00,Wunderground v.1.15,2013-07-01 06:58:00,